createdAt,value
2024-05-09T00:00:30.427Z,17.40
2024-05-09T00:03:02.634Z,17.40
2024-05-09T00:05:29.394Z,17.40
2024-05-09T00:07:56.141Z,17.40
2024-05-09T00:10:29.245Z,17.40
2024-05-09T00:13:02.326Z,17.40
2024-05-09T00:15:29.012Z,17.30
2024-05-09T00:17:55.894Z,17.30
2024-05-09T00:20:28.422Z,17.30
2024-05-09T00:23:02.711Z,17.30
2024-05-09T00:25:29.419Z,17.30
2024-05-09T00:27:56.072Z,17.30
2024-05-09T00:30:31.601Z,17.30
2024-05-09T00:33:02.020Z,17.30
2024-05-09T00:35:29.005Z,17.30
2024-05-09T00:37:55.800Z,17.30
2024-05-09T00:40:30.662Z,17.30
2024-05-09T00:43:04.811Z,17.30
2024-05-09T00:45:31.491Z,17.30
2024-05-09T00:47:58.241Z,17.30
2024-05-09T00:50:33.370Z,17.20
2024-05-09T00:53:02.774Z,17.20
2024-05-09T00:55:29.437Z,17.20
2024-05-09T00:57:56.080Z,17.20
2024-05-09T01:00:31.102Z,17.20
2024-05-09T01:03:04.815Z,17.20
2024-05-09T01:05:31.780Z,17.20
2024-05-09T01:08:00.823Z,17.20
2024-05-09T01:10:33.781Z,17.20
2024-05-09T01:13:02.047Z,17.20
2024-05-09T01:15:28.731Z,17.20
2024-05-09T01:17:55.949Z,17.20
2024-05-09T01:20:31.878Z,17.10
2024-05-09T01:23:06.902Z,17.20
2024-05-09T01:25:33.633Z,17.20
2024-05-09T01:28:00.327Z,17.20
2024-05-09T01:30:33.871Z,17.10
2024-05-09T01:33:03.187Z,17.10
2024-05-09T01:35:30.278Z,17.10
2024-05-09T01:37:57.060Z,17.10
2024-05-09T01:40:33.330Z,17.10
2024-05-09T01:43:04.410Z,17.10
2024-05-09T01:45:36.893Z,17.10
2024-05-09T01:48:04.017Z,17.10
2024-05-09T01:53:00.438Z,17.10
2024-05-09T01:55:27.136Z,17.10
2024-05-09T01:57:53.781Z,17.10
2024-05-09T02:00:30.235Z,17.10
2024-05-09T02:03:04.298Z,17.10
2024-05-09T02:05:31.196Z,17.10
2024-05-09T02:07:57.903Z,17.10
2024-05-09T02:10:31.736Z,17.10
2024-05-09T02:12:59.517Z,17.10
2024-05-09T02:15:26.175Z,17.10
2024-05-09T02:17:53.094Z,17.10
2024-05-09T02:20:30.021Z,17.00
2024-05-09T02:23:02.380Z,17.10
2024-05-09T02:25:29.082Z,17.10
2024-05-09T02:27:55.723Z,17.00
2024-05-09T02:30:30.114Z,17.10
2024-05-09T02:33:05.014Z,17.10
2024-05-09T02:35:31.909Z,17.10
2024-05-09T02:37:58.714Z,17.10
2024-05-09T02:40:32.959Z,17.10
2024-05-09T02:43:03.653Z,17.00
2024-05-09T02:45:30.316Z,17.10
2024-05-09T02:47:57.393Z,17.10
2024-05-09T02:50:33.091Z,17.10
2024-05-09T02:53:04.416Z,17.00
2024-05-09T02:55:31.262Z,17.10
2024-05-09T02:57:57.993Z,17.10
2024-05-09T03:00:34.180Z,17.00
2024-05-09T03:03:05.603Z,17.10
2024-05-09T03:05:32.639Z,17.10
2024-05-09T03:07:59.490Z,17.10
2024-05-09T03:10:28.962Z,17.10
2024-05-09T03:13:01.113Z,17.10
2024-05-09T03:15:27.762Z,17.10
2024-05-09T03:17:54.577Z,17.10
2024-05-09T03:20:27.309Z,17.10
2024-05-09T03:22:57.486Z,17.10
2024-05-09T03:25:24.197Z,17.10
2024-05-09T03:27:50.872Z,17.00
2024-05-09T03:30:29.219Z,17.10
2024-05-09T03:33:03.044Z,17.20
2024-05-09T03:35:30.066Z,17.20
2024-05-09T03:38:00.991Z,17.10
2024-05-09T03:40:30.843Z,17.20
2024-05-09T03:42:57.984Z,17.20
2024-05-09T03:45:24.641Z,17.20
2024-05-09T03:47:51.704Z,17.20
2024-05-09T03:50:26.058Z,17.20
2024-05-09T03:53:00.022Z,17.20
2024-05-09T03:55:26.838Z,17.20
2024-05-09T03:57:53.498Z,17.20
2024-05-09T04:00:30.082Z,17.20
2024-05-09T04:03:02.213Z,17.20
2024-05-09T04:05:29.208Z,17.10
2024-05-09T04:07:55.952Z,17.20
2024-05-09T04:10:30.261Z,17.10
2024-05-09T04:12:59.839Z,17.20
2024-05-09T04:15:26.480Z,17.10
2024-05-09T04:17:53.361Z,17.20
2024-05-09T04:20:29.302Z,17.20
2024-05-09T04:23:03.870Z,17.20
2024-05-09T04:25:30.589Z,17.20
2024-05-09T04:27:57.251Z,17.20
2024-05-09T04:30:34.298Z,17.10
2024-05-09T04:33:05.569Z,17.10
2024-05-09T04:35:32.573Z,17.10
2024-05-09T04:37:59.350Z,17.10
2024-05-09T04:40:33.043Z,17.10
2024-05-09T04:43:02.517Z,17.20
2024-05-09T04:45:29.201Z,17.30
2024-05-09T04:47:56.047Z,17.40
2024-05-09T04:50:30.170Z,17.40
2024-05-09T04:53:03.225Z,17.50
2024-05-09T04:55:30.062Z,17.60
2024-05-09T04:57:56.711Z,17.50
2024-05-09T05:00:32.362Z,17.70
2024-05-09T05:03:03.548Z,17.60
2024-05-09T05:05:30.359Z,17.60
2024-05-09T05:07:57.077Z,17.60
2024-05-09T05:10:32.944Z,17.60
2024-05-09T05:13:02.234Z,17.60
2024-05-09T05:15:28.918Z,17.70
2024-05-09T05:18:01.257Z,17.50
2024-05-09T05:20:33.414Z,17.40
2024-05-09T05:23:01.067Z,17.60
2024-05-09T05:25:27.912Z,17.60
2024-05-09T05:27:54.558Z,17.60
2024-05-09T05:30:28.655Z,17.60
2024-05-09T05:32:59.511Z,17.60
2024-05-09T05:35:26.331Z,17.60
2024-05-09T05:37:53.093Z,17.60
2024-05-09T05:40:28.165Z,17.40
2024-05-09T05:43:02.117Z,17.40
2024-05-09T05:45:28.752Z,17.40
2024-05-09T05:47:55.601Z,17.50
2024-05-09T05:50:27.997Z,17.40
2024-05-09T05:53:01.958Z,17.50
2024-05-09T05:55:28.651Z,17.40
2024-05-09T05:57:55.293Z,17.50
2024-05-09T06:00:29.537Z,17.50
2024-05-09T06:03:02.394Z,17.60
2024-05-09T06:05:29.252Z,17.60
2024-05-09T06:07:56.104Z,17.60
2024-05-09T06:10:29.593Z,17.60
2024-05-09T06:13:01.637Z,17.60
2024-05-09T06:15:28.340Z,17.60
2024-05-09T06:17:55.247Z,17.60
2024-05-09T06:20:31.540Z,17.60
2024-05-09T06:23:02.563Z,17.60
2024-05-09T06:25:29.318Z,17.60
2024-05-09T06:27:55.977Z,17.60
2024-05-09T06:30:30.051Z,17.60
2024-05-09T06:33:04.046Z,17.50
2024-05-09T06:35:31.417Z,17.60
2024-05-09T06:37:58.331Z,17.50
2024-05-09T06:40:29.489Z,17.70
2024-05-09T06:43:02.155Z,17.70
2024-05-09T06:45:28.864Z,17.80
2024-05-09T06:47:55.626Z,17.70
2024-05-09T06:50:24.442Z,17.80
2024-05-09T06:52:54.744Z,17.80
2024-05-09T06:55:21.477Z,17.80
2024-05-09T06:57:48.190Z,17.90
2024-05-09T07:00:22.811Z,17.90
2024-05-09T07:02:58.424Z,17.80
2024-05-09T07:05:26.595Z,17.90
2024-05-09T07:07:53.452Z,17.90
2024-05-09T07:10:28.462Z,17.80
2024-05-09T07:12:59.424Z,17.90
2024-05-09T07:15:26.084Z,17.80
2024-05-09T07:17:52.879Z,17.80
2024-05-09T07:20:27.147Z,17.90
2024-05-09T07:22:58.819Z,17.90
2024-05-09T07:25:25.490Z,17.90
2024-05-09T07:27:52.148Z,17.90
2024-05-09T07:30:23.729Z,17.90
2024-05-09T07:32:57.603Z,17.80
2024-05-09T07:35:24.429Z,17.80
2024-05-09T07:37:51.217Z,17.90
2024-05-09T07:40:28.168Z,17.90
2024-05-09T07:43:00.075Z,17.90
2024-05-09T07:45:44.471Z,17.90
2024-05-09T07:49:44.969Z,17.90
2024-05-09T07:53:00.846Z,17.90
2024-05-09T07:53:49.977Z,17.90
2024-05-09T07:56:21.762Z,17.90
2024-05-09T07:58:49.899Z,17.90
2024-05-09T08:01:16.623Z,17.90
2024-05-09T08:03:43.482Z,17.90
2024-05-09T08:06:10.243Z,17.90
2024-05-09T08:08:36.882Z,18.00
2024-05-09T08:13:54.118Z,18.00
2024-05-09T08:16:20.931Z,18.00
2024-05-09T08:18:47.823Z,18.00
2024-05-09T08:21:14.519Z,18.00
2024-05-09T08:23:41.166Z,18.00
2024-05-09T08:26:07.830Z,18.00
2024-05-09T08:28:34.471Z,18.00
2024-05-09T08:31:04.206Z,18.00
2024-05-09T08:33:33.160Z,18.00
2024-05-09T08:36:00.005Z,18.00
2024-05-09T08:38:26.655Z,18.00
2024-05-09T08:40:53.356Z,18.00
2024-05-09T08:43:20.393Z,18.00
2024-05-09T08:45:47.254Z,18.00
2024-05-09T08:48:15.418Z,18.00
2024-05-09T08:50:43.196Z,18.00
2024-05-09T08:53:10.109Z,18.00
2024-05-09T08:55:40.426Z,18.00
2024-05-09T08:58:09.792Z,18.00
2024-05-09T09:00:37.708Z,18.00
2024-05-09T09:03:07.236Z,18.10
2024-05-09T09:05:34.265Z,18.10
2024-05-09T09:08:01.125Z,18.10
2024-05-09T09:10:32.056Z,18.10
2024-05-09T09:12:59.839Z,18.10
2024-05-09T09:15:26.656Z,18.10
2024-05-09T09:17:53.488Z,18.10
2024-05-09T09:20:26.352Z,18.10
2024-05-09T09:23:00.179Z,18.10
2024-05-09T09:25:26.873Z,18.10
2024-05-09T09:27:53.597Z,18.10
2024-05-09T09:30:31.762Z,18.10
2024-05-09T09:33:03.649Z,18.20
2024-05-09T09:35:30.418Z,18.20
2024-05-09T09:37:57.083Z,18.10
2024-05-09T09:40:31.039Z,18.20
2024-05-09T09:42:59.257Z,18.20
2024-05-09T09:45:25.947Z,18.20
2024-05-09T09:47:52.809Z,18.20
2024-05-09T09:50:27.350Z,18.20
2024-05-09T09:53:07.588Z,18.20
2024-05-09T09:55:34.275Z,18.20
2024-05-09T09:58:01.931Z,18.20
2024-05-09T10:00:33.030Z,18.20
2024-05-09T10:03:01.000Z,18.20
2024-05-09T10:05:28.216Z,18.20
2024-05-09T10:07:55.206Z,18.20
2024-05-09T10:10:29.873Z,18.20
2024-05-09T10:12:59.234Z,18.20
2024-05-09T10:15:25.927Z,18.20
2024-05-09T10:17:52.735Z,18.20
2024-05-09T10:20:22.184Z,18.30
2024-05-09T10:22:54.359Z,18.30
2024-05-09T10:25:21.220Z,18.30
2024-05-09T10:27:48.045Z,18.20
2024-05-09T10:30:21.411Z,18.30
2024-05-09T10:32:52.818Z,18.30
2024-05-09T10:35:19.597Z,18.20
2024-05-09T10:37:46.261Z,18.30
2024-05-09T10:40:19.911Z,18.30
2024-05-09T10:42:50.221Z,18.30
2024-05-09T10:45:16.862Z,18.30
2024-05-09T10:47:43.800Z,18.30
2024-05-09T10:50:18.477Z,18.30
2024-05-09T10:52:52.095Z,18.30
2024-05-09T10:55:18.804Z,18.30
2024-05-09T10:57:45.508Z,18.30
2024-05-09T11:00:19.022Z,18.30
2024-05-09T11:02:50.093Z,18.30
2024-05-09T11:05:17.133Z,18.30
2024-05-09T11:07:43.884Z,18.30
2024-05-09T11:10:14.509Z,18.30
2024-05-09T11:12:41.424Z,18.40
2024-05-09T11:15:08.108Z,18.40
2024-05-09T11:17:34.835Z,18.40
2024-05-09T11:20:01.574Z,18.40
2024-05-09T11:22:28.357Z,18.30
2024-05-09T11:24:55.141Z,18.30
2024-05-09T11:27:21.879Z,18.30
2024-05-09T11:29:48.534Z,18.30
2024-05-09T11:32:19.464Z,18.30
2024-05-09T11:34:46.164Z,18.40
2024-05-09T11:37:12.894Z,18.40
2024-05-09T11:39:39.670Z,18.40
2024-05-09T11:42:06.349Z,18.40
2024-05-09T11:44:32.996Z,18.40
2024-05-09T11:46:59.641Z,18.40
2024-05-09T11:49:27.171Z,18.40
2024-05-09T11:51:54.079Z,18.40
2024-05-09T11:54:20.724Z,18.40
2024-05-09T11:56:47.420Z,18.40
2024-05-09T11:59:14.083Z,18.50
2024-05-09T12:01:40.778Z,18.40
2024-05-09T12:04:07.570Z,18.40
2024-05-09T12:06:34.346Z,18.40
2024-05-09T12:09:01.042Z,18.50
2024-05-09T12:11:27.723Z,18.40
2024-05-09T12:13:54.402Z,18.40
2024-05-09T12:16:21.263Z,18.40
2024-05-09T12:18:48.170Z,18.40
2024-05-09T12:21:14.858Z,18.40
2024-05-09T12:23:41.503Z,18.40
2024-05-09T12:26:08.155Z,18.40
2024-05-09T12:28:34.806Z,18.40
2024-05-09T12:31:01.467Z,18.40
2024-05-09T12:33:28.410Z,18.40
2024-05-09T12:35:55.160Z,18.50
2024-05-09T12:38:21.807Z,18.40
2024-05-09T12:40:48.553Z,18.50
2024-05-09T12:43:15.278Z,18.50
2024-05-09T12:45:42.084Z,18.50
2024-05-09T12:48:08.934Z,18.40
2024-05-09T12:50:35.844Z,18.50
2024-05-09T12:53:03.714Z,18.50
2024-05-09T12:55:37.308Z,18.50
2024-05-09T12:58:11.349Z,18.50
2024-05-09T13:00:38.375Z,18.50
2024-05-09T13:03:05.209Z,18.50
2024-05-09T13:05:32.161Z,18.50
2024-05-09T13:07:58.991Z,18.50
2024-05-09T13:10:31.658Z,18.50
2024-05-09T13:13:00.577Z,18.50
2024-05-09T13:15:27.764Z,18.50
2024-05-09T13:17:56.492Z,18.50
2024-05-09T13:20:31.341Z,18.50
2024-05-09T13:23:00.256Z,18.50
2024-05-09T13:25:26.926Z,18.50
2024-05-09T13:27:53.679Z,18.50
2024-05-09T13:30:29.031Z,18.50
2024-05-09T13:33:02.696Z,18.50
2024-05-09T13:35:29.466Z,18.40
2024-05-09T13:37:56.193Z,18.50
2024-05-09T13:40:30.030Z,18.50
2024-05-09T13:43:00.813Z,18.40
2024-05-09T13:45:27.560Z,18.50
2024-05-09T13:47:54.321Z,18.50
2024-05-09T13:50:30.542Z,18.50
2024-05-09T13:53:00.745Z,18.50
2024-05-09T13:55:27.407Z,18.50
2024-05-09T13:57:54.205Z,18.50
2024-05-09T14:02:50.611Z,18.50
2024-05-09T14:05:17.525Z,18.50
2024-05-09T14:07:44.256Z,18.50
2024-05-09T14:10:19.811Z,18.50
2024-05-09T14:12:52.533Z,18.50
2024-05-09T14:15:19.214Z,18.50
2024-05-09T14:17:49.696Z,18.50
2024-05-09T14:20:23.894Z,18.50
2024-05-09T14:22:57.298Z,18.60
2024-05-09T14:25:23.963Z,18.60
2024-05-09T14:27:50.709Z,18.60
2024-05-09T14:30:25.779Z,18.60
2024-05-09T14:32:57.989Z,18.60
2024-05-09T14:35:24.661Z,18.60
2024-05-09T14:37:51.328Z,18.60
2024-05-09T14:42:47.576Z,18.60
2024-05-09T14:45:14.247Z,18.60
2024-05-09T14:47:41.190Z,18.60
2024-05-09T14:50:11.096Z,18.60
2024-05-09T14:52:40.458Z,18.60
2024-05-09T14:55:08.576Z,18.60
2024-05-09T14:57:36.901Z,18.60
2024-05-09T15:00:05.166Z,18.50
2024-05-09T15:02:33.600Z,18.60
2024-05-09T15:05:00.382Z,18.60
2024-05-09T15:07:27.235Z,18.60
2024-05-09T15:09:53.924Z,18.50
2024-05-09T15:12:20.608Z,18.60
2024-05-09T15:14:47.278Z,18.60
2024-05-09T15:17:13.922Z,18.60
2024-05-09T15:19:40.782Z,18.60
2024-05-09T15:22:07.741Z,18.60
2024-05-09T15:24:34.566Z,18.60
2024-05-09T15:27:01.252Z,18.70
2024-05-09T15:29:27.909Z,18.70
2024-05-09T15:31:54.606Z,18.70
2024-05-09T15:34:21.361Z,18.70
2024-05-09T15:36:48.070Z,18.70
2024-05-09T15:39:14.750Z,18.70
2024-05-09T15:41:41.421Z,18.70
2024-05-09T15:44:08.094Z,18.70
2024-05-09T15:46:34.813Z,18.70
2024-05-09T15:49:01.755Z,18.70
2024-05-09T15:51:28.548Z,18.70
2024-05-09T15:53:55.194Z,18.70
2024-05-09T15:56:21.839Z,18.60
2024-05-09T15:58:48.487Z,18.70
2024-05-09T16:01:15.204Z,18.70
2024-05-09T16:03:42.131Z,18.60
2024-05-09T16:06:08.893Z,18.60
2024-05-09T16:08:35.537Z,18.70
2024-05-09T16:11:02.324Z,18.60
2024-05-09T16:13:29.211Z,18.60
2024-05-09T16:15:56.069Z,18.70
2024-05-09T16:18:22.877Z,18.60
2024-05-09T16:20:50.435Z,18.60
2024-05-09T16:23:17.347Z,18.60
2024-05-09T16:25:44.101Z,18.60
2024-05-09T16:28:11.192Z,18.60
2024-05-09T16:30:38.116Z,18.60
2024-05-09T16:33:05.734Z,18.60
2024-05-09T16:35:32.698Z,18.60
2024-05-09T16:37:59.344Z,18.60
2024-05-09T16:40:34.520Z,18.60
2024-05-09T16:43:05.855Z,18.60
2024-05-09T16:45:32.818Z,18.70
2024-05-09T16:47:59.958Z,18.60
2024-05-09T16:50:32.211Z,18.60
2024-05-09T16:53:01.024Z,18.60
2024-05-09T16:55:27.889Z,18.60
2024-05-09T16:57:54.864Z,18.60
2024-05-09T17:00:31.403Z,18.50
2024-05-09T17:03:06.605Z,18.50
2024-05-09T17:05:34.046Z,18.60
2024-05-09T17:08:01.103Z,18.60
2024-05-09T17:10:34.074Z,18.70
2024-05-09T17:13:02.350Z,18.70
2024-05-09T17:15:29.453Z,18.60
2024-05-09T17:17:56.219Z,18.70
2024-05-09T17:20:29.834Z,18.70
2024-05-09T17:23:00.921Z,18.70
2024-05-09T17:25:27.618Z,18.70
2024-05-09T17:27:54.537Z,18.70
2024-05-09T17:30:28.904Z,18.70
2024-05-09T17:33:01.978Z,18.70
2024-05-09T17:35:28.877Z,18.70
2024-05-09T17:37:55.534Z,18.60
2024-05-09T17:40:30.791Z,18.70
2024-05-09T17:43:01.470Z,18.70
2024-05-09T17:45:28.347Z,18.70
2024-05-09T17:47:55.194Z,18.70
2024-05-09T17:50:27.979Z,18.70
2024-05-09T17:53:01.098Z,18.60
2024-05-09T17:55:27.787Z,18.60
2024-05-09T17:57:54.514Z,18.60
2024-05-09T18:00:29.477Z,18.60
2024-05-09T18:03:04.180Z,18.60
2024-05-09T18:05:31.216Z,18.70
2024-05-09T18:07:58.202Z,18.70
2024-05-09T18:10:32.566Z,18.70
2024-05-09T18:13:03.378Z,18.70
2024-05-09T18:15:30.132Z,18.70
2024-05-09T18:17:56.879Z,18.60
2024-05-09T18:20:33.117Z,18.60
2024-05-09T18:23:07.964Z,18.60
2024-05-09T18:25:34.759Z,18.60
2024-05-09T18:28:01.612Z,18.70
2024-05-09T18:30:34.311Z,18.60
2024-05-09T18:33:03.324Z,18.60
2024-05-09T18:35:30.193Z,18.60
2024-05-09T18:37:56.834Z,18.60
2024-05-09T18:42:53.126Z,18.60
2024-05-09T18:45:19.952Z,18.60
2024-05-09T18:47:46.709Z,18.60
2024-05-09T18:50:20.491Z,18.60
2024-05-09T18:52:54.388Z,18.60
2024-05-09T18:55:21.118Z,18.60
2024-05-09T18:57:47.874Z,18.50
2024-05-09T19:00:26.655Z,18.60
2024-05-09T19:03:00.578Z,18.60
2024-05-09T19:05:27.870Z,18.60
2024-05-09T19:07:54.745Z,18.60
2024-05-09T19:10:23.094Z,18.50
2024-05-09T19:12:53.008Z,18.60
2024-05-09T19:15:19.703Z,18.50
2024-05-09T19:17:46.455Z,18.50
2024-05-09T19:20:24.698Z,18.60
2024-05-09T19:22:55.463Z,18.60
2024-05-09T19:25:22.133Z,18.60
2024-05-09T19:27:49.012Z,18.60
2024-05-09T19:30:25.074Z,18.60
2024-05-09T19:33:00.588Z,18.50
2024-05-09T19:35:27.368Z,18.50
2024-05-09T19:37:54.048Z,18.50
2024-05-09T19:40:28.645Z,18.50
2024-05-09T19:42:58.606Z,18.50
2024-05-09T19:45:25.392Z,18.50
2024-05-09T19:47:52.338Z,18.50
2024-05-09T19:50:26.753Z,18.50
2024-05-09T19:52:59.628Z,18.50
2024-05-09T19:55:26.292Z,18.50
2024-05-09T19:57:53.016Z,18.50
2024-05-09T20:00:26.165Z,18.50
2024-05-09T20:02:56.539Z,18.40
2024-05-09T20:05:23.694Z,18.40
2024-05-09T20:07:50.473Z,18.40
2024-05-09T20:10:23.669Z,18.40
2024-05-09T20:12:55.754Z,18.40
2024-05-09T20:15:22.419Z,18.40
2024-05-09T20:17:49.179Z,18.40
2024-05-09T20:20:27.307Z,18.40
2024-05-09T20:22:59.983Z,18.40
2024-05-09T20:25:26.629Z,18.40
2024-05-09T20:27:53.327Z,18.40
2024-05-09T20:30:25.544Z,18.40
2024-05-09T20:32:58.374Z,18.30
2024-05-09T20:35:25.683Z,18.30
2024-05-09T20:37:52.324Z,18.30
2024-05-09T20:40:25.763Z,18.30
2024-05-09T20:42:58.396Z,18.30
2024-05-09T20:45:25.093Z,18.30
2024-05-09T20:47:51.923Z,18.30
2024-05-09T20:50:27.975Z,18.30
2024-05-09T20:53:02.610Z,18.30
2024-05-09T20:55:29.343Z,18.30
2024-05-09T20:57:56.104Z,18.30
2024-05-09T21:00:30.000Z,18.20
2024-05-09T21:03:04.580Z,18.20
2024-05-09T21:05:31.584Z,18.30
2024-05-09T21:07:58.377Z,18.20
2024-05-09T21:12:53.007Z,18.20
2024-05-09T21:15:19.668Z,18.30
2024-05-09T21:17:46.486Z,18.30
2024-05-09T21:20:17.432Z,18.30
2024-05-09T21:22:47.367Z,18.30
2024-05-09T21:25:14.355Z,18.20
2024-05-09T21:27:41.144Z,18.20
2024-05-09T21:30:12.966Z,18.20
2024-05-09T21:32:45.131Z,18.20
2024-05-09T21:35:11.937Z,18.20
2024-05-09T21:37:38.615Z,18.20
2024-05-09T21:40:09.331Z,18.20
2024-05-09T21:42:38.197Z,18.20
2024-05-09T21:45:04.914Z,18.20
2024-05-09T21:47:31.731Z,18.20
2024-05-09T21:50:01.796Z,18.20
2024-05-09T21:52:28.460Z,18.20
2024-05-09T21:54:55.178Z,18.20
2024-05-09T21:57:21.849Z,18.20
2024-05-09T21:59:48.490Z,18.20
2024-05-09T22:02:15.282Z,18.20
2024-05-09T22:04:42.094Z,18.30
2024-05-09T22:07:08.876Z,18.30
2024-05-09T22:09:35.601Z,18.30
2024-05-09T22:12:02.498Z,18.30
2024-05-09T22:14:29.238Z,18.30
2024-05-09T22:16:55.967Z,18.30
2024-05-09T22:19:22.694Z,18.30
2024-05-09T22:21:49.504Z,18.30
2024-05-09T22:24:19.812Z,18.30
2024-05-09T22:26:46.470Z,18.30
2024-05-09T22:29:13.137Z,18.30
2024-05-09T22:31:39.785Z,18.40
2024-05-09T22:34:06.550Z,18.40
2024-05-09T22:36:33.337Z,18.40
2024-05-09T22:39:00.103Z,18.40
2024-05-09T22:41:26.765Z,18.40
2024-05-09T22:43:53.422Z,18.50
2024-05-09T22:46:20.145Z,18.50
2024-05-09T22:48:46.914Z,18.40
2024-05-09T22:51:13.608Z,18.50
2024-05-09T22:53:40.242Z,18.40
2024-05-09T22:56:06.901Z,18.40
2024-05-09T22:58:33.672Z,18.50
2024-05-09T23:01:00.474Z,18.50
2024-05-09T23:03:27.336Z,18.50
2024-05-09T23:05:54.014Z,18.50
2024-05-09T23:08:20.679Z,18.50
2024-05-09T23:10:47.489Z,18.40
2024-05-09T23:13:14.260Z,18.50
2024-05-09T23:15:41.027Z,18.50
2024-05-09T23:18:08.038Z,18.50
2024-05-09T23:20:38.568Z,18.50
2024-05-09T23:23:06.906Z,18.50
2024-05-09T23:25:33.790Z,18.50
2024-05-09T23:28:00.611Z,18.50
2024-05-09T23:30:34.801Z,18.50
2024-05-09T23:33:05.684Z,18.40
2024-05-09T23:35:32.607Z,18.40
2024-05-09T23:37:59.555Z,18.40
2024-05-09T23:40:37.010Z,18.40
2024-05-09T23:43:06.843Z,18.30
2024-05-09T23:45:33.907Z,18.30
2024-05-09T23:48:01.232Z,18.40
2024-05-09T23:50:34.434Z,18.30
2024-05-09T23:53:04.202Z,18.30
2024-05-09T23:55:30.902Z,18.30
2024-05-09T23:57:57.610Z,18.20
